Aeroporto :
LOGIN :

Iscrizione | Disclaimer

   EN    FR    IT 

 










Sommario :    VFR   VFR Marginale   IFR   IFR Intensivo   IFR Molto Intensivo
Visibilità : 
Base nubi : 
>= 8 km
>= 3000ft
5 / 8 km
1000 / 3000 ft
1500m / 5 km
500 / 1000 ft
800 / 1500m
200 / 500 ft
< 800m
< 200 ft
Simboli :   Temporali  Nebbia  Neve Forte  Precipitazioni Forti  Vento > 20 kt
SIGMETs :   Varie  Temporali  Ghiacco  Turbolenza  Onda orograficha  Ceneri Vulcaniche






- Altitudine del aeroporto : 978 ft
- Codice IATA : LNZ


LOWL - Linz

ULTIMO METAR :
  • 191720Z 23004KT 8000 FEW170 BKN190 03/02 Q1016 NOSIG

METARs OBSOLETI :
  • 191650Z 25004KT 9000 FEW170 BKN190 04/02 Q1016 NOSIG
  • 191620Z 25005KT 9000 FEW170 BKN190 04/03 Q1015 NOSIG
  • 191550Z 26006KT 9000 FEW170 BKN190 04/03 Q1015 NOSIG
  • 191520Z 22004KT 150V250 9000 FEW170 BKN200 05/04 Q1015 NOSIG
  • 191450Z 21002KT 6000 FEW025 SCT180 BKN300 06/04 Q1015 NOSIG

TAF TAF LOWL
Valido dal 19 a 18 ore il 20 a 18 ore UTC


191715Z 1918/2018 25004KT 6000 FEW010 BKN160 TX05/2018Z TN02/2006Z
BECMG 1919/1921 4000 BR BKN010
TEMPO 1921/2012 1200 BKN003
PROB40
TEMPO 2001/2010 0300 BCFG OVC002
BECMG 2012/2014 5000 BKN015



MetMap, La meteo Aeronautica in un colpo d'occhio ! - Copyright ORBIFLY Dicembre 2007 - Disclaimer

ORBIFLY MET'MAP TEAM :

Programmazione e sviluppo : Alexandra Zaïnal
Concezione e sviluppo : Baudouin d'Aumeries
Co-Programmazione e sviluppo : Marc-Olivier Méhu
Supporto tecnico e logistico : Manuel Goepfert
Aiuto per la traduzione : Arnaldo La Scala

Contatto : metmap@orbifly.com




FONTI E CREDITI :

   NOAA